KAVC

Mecklenburg-Brunswick Regional Airport

South Hill, Virginia, USA
METAR KAVC 201715Z AUTO 23004KT 10SM SCT006 SCT060 OVC110 16/16 A2990 RMK AO2 P0001 T01630163
Observed Flight Rules
Oct-20 @ 17:15 UTC (19 minutes ago) Visual Flight Rules
Wind Visibility Clouds
230° at 4 knots 10 miles
  • Scattered at 600' AGL
  • Scattered at 6,000' AGL
  • Overcast at 11,000' AGL
Temperatures Readings Precipitation
Current 16°C / 61°F
Dewpoint 16°C / 61°F
Humidity 100%
Altimeter 29.9" Hg
Pressure 1013 hPa
Elevation 135
Current Rain 0.01
METAR KAVC 201715Z AUTO 23004KT 10SM SCT006 SCT060 OVC110 16/16 A2990 RMK AO2 P0001 T01630163
Observed Flight Rules
Oct-20 @ 17:15 UTC
(19 minutes ago)
VFR
Wind Visibility
230° at 4 knots 10 miles
Clouds
  • Scattered at 600' AGL
  • Scattered at 6,000' AGL
  • Overcast at 11,000' AGL
Temperature Dewpoint
16°C / 61°F 16°C / 61°F
Humidity Altimeter Pressure
100% 29.9" Hg 1013 hPa
Current Rain
0.01